sensor_id;sensor_type;location;lat;lon;timestamp;temperature;humidity
8481;DHT22;4277;51.354;6.740;2023-06-24T01:05:46;18.40;99.90
8481;DHT22;4277;51.354;6.740;2023-06-24T02:08:12;18.30;99.90
8481;DHT22;4277;51.354;6.740;2023-06-24T02:10:40;17.90;99.90
8481;DHT22;4277;51.354;6.740;2023-06-24T04:42:09;17.60;99.90
8481;DHT22;4277;51.354;6.740;2023-06-24T04:44:36;18.30;99.90
8481;DHT22;4277;51.354;6.740;2023-06-24T04:47:01;18.20;99.90
8481;DHT22;4277;51.354;6.740;2023-06-24T04:49:27;18.20;99.90
8481;DHT22;4277;51.354;6.740;2023-06-24T04:51:53;18.20;99.90
8481;DHT22;4277;51.354;6.740;2023-06-24T04:54:18;18.20;99.90
8481;DHT22;4277;51.354;6.740;2023-06-24T04:56:44;18.20;99.90
8481;DHT22;4277;51.354;6.740;2023-06-24T04:59:10;18.30;99.90
8481;DHT22;4277;51.354;6.740;2023-06-24T05:01:36;18.30;99.90
8481;DHT22;4277;51.354;6.740;2023-06-24T05:04:02;18.30;99.90
8481;DHT22;4277;51.354;6.740;2023-06-24T05:06:27;18.20;99.90
8481;DHT22;4277;51.354;6.740;2023-06-24T05:08:53;18.40;99.90
8481;DHT22;4277;51.354;6.740;2023-06-24T05:11:18;18.30;99.90
8481;DHT22;4277;51.354;6.740;2023-06-24T05:13:44;18.40;99.90
8481;DHT22;4277;51.354;6.740;2023-06-24T05:16:10;18.40;99.90
8481;DHT22;4277;51.354;6.740;2023-06-24T05:18:36;18.40;99.90
8481;DHT22;4277;51.354;6.740;2023-06-24T05:21:01;18.50;99.90
8481;DHT22;4277;51.354;6.740;2023-06-24T05:23:27;18.50;99.90
8481;DHT22;4277;51.354;6.740;2023-06-24T05:25:52;18.50;99.90
8481;DHT22;4277;51.354;6.740;2023-06-24T05:28:18;18.40;99.90
8481;DHT22;4277;51.354;6.740;2023-06-24T05:30:45;18.50;99.90
8481;DHT22;4277;51.354;6.740;2023-06-24T05:33:11;18.50;99.90
8481;DHT22;4277;51.354;6.740;2023-06-24T05:35:36;18.50;99.90
8481;DHT22;4277;51.354;6.740;2023-06-24T05:38:05;18.60;99.90
8481;DHT22;4277;51.354;6.740;2023-06-24T05:40:31;18.60;99.90
8481;DHT22;4277;51.354;6.740;2023-06-24T05:42:56;18.60;99.90
8481;DHT22;4277;51.354;6.740;2023-06-24T05:45:22;18.60;99.90
8481;DHT22;4277;51.354;6.740;2023-06-24T05:47:47;18.60;99.90
8481;DHT22;4277;51.354;6.740;2023-06-24T05:50:13;18.70;99.90
8481;DHT22;4277;51.354;6.740;2023-06-24T05:52:38;18.70;99.90
8481;DHT22;4277;51.354;6.740;2023-06-24T05:55:04;18.70;99.90
8481;DHT22;4277;51.354;6.740;2023-06-24T05:57:30;18.80;99.90
8481;DHT22;4277;51.354;6.740;2023-06-24T05:59:55;18.90;99.90
8481;DHT22;4277;51.354;6.740;2023-06-24T06:02:20;18.80;99.90
8481;DHT22;4277;51.354;6.740;2023-06-24T06:04:47;18.80;99.90
8481;DHT22;4277;51.354;6.740;2023-06-24T06:07:12;18.80;99.90
8481;DHT22;4277;51.354;6.740;2023-06-24T06:09:38;19.00;99.90
8481;DHT22;4277;51.354;6.740;2023-06-24T06:12:04;19.00;99.90
8481;DHT22;4277;51.354;6.740;2023-06-24T06:14:29;18.90;99.90
8481;DHT22;4277;51.354;6.740;2023-06-24T06:16:55;19.00;99.90
8481;DHT22;4277;51.354;6.740;2023-06-24T06:19:20;19.00;99.90
8481;DHT22;4277;51.354;6.740;2023-06-24T06:21:46;19.00;99.90
8481;DHT22;4277;51.354;6.740;2023-06-24T06:24:11;19.00;99.90
8481;DHT22;4277;51.354;6.740;2023-06-24T06:26:43;19.10;99.90
8481;DHT22;4277;51.354;6.740;2023-06-24T06:29:10;19.30;99.90
8481;DHT22;4277;51.354;6.740;2023-06-24T06:31:36;19.30;99.90
8481;DHT22;4277;51.354;6.740;2023-06-24T06:34:01;19.30;99.90
8481;DHT22;4277;51.354;6.740;2023-06-24T06:36:28;19.40;99.90
8481;DHT22;4277;51.354;6.740;2023-06-24T06:38:54;19.30;99.90
8481;DHT22;4277;51.354;6.740;2023-06-24T06:41:19;19.40;99.90
8481;DHT22;4277;51.354;6.740;2023-06-24T06:43:53;19.40;99.90
8481;DHT22;4277;51.354;6.740;2023-06-24T06:46:19;19.50;99.90
8481;DHT22;4277;51.354;6.740;2023-06-24T06:48:45;19.50;99.90
8481;DHT22;4277;51.354;6.740;2023-06-24T06:51:11;19.60;99.90
8481;DHT22;4277;51.354;6.740;2023-06-24T06:53:37;19.60;99.90
8481;DHT22;4277;51.354;6.740;2023-06-24T06:56:03;19.70;99.90
8481;DHT22;4277;51.354;6.740;2023-06-24T06:58:28;19.70;99.90
8481;DHT22;4277;51.354;6.740;2023-06-24T07:00:54;19.80;99.90
8481;DHT22;4277;51.354;6.740;2023-06-24T07:03:19;20.00;99.90
8481;DHT22;4277;51.354;6.740;2023-06-24T07:05:45;20.10;99.90
8481;DHT22;4277;51.354;6.740;2023-06-24T07:08:11;20.10;99.90
8481;DHT22;4277;51.354;6.740;2023-06-24T07:10:37;20.20;99.90
8481;DHT22;4277;51.354;6.740;2023-06-24T07:13:02;20.40;99.90
8481;DHT22;4277;51.354;6.740;2023-06-24T07:15:28;20.50;99.90
8481;DHT22;4277;51.354;6.740;2023-06-24T07:17:53;20.60;99.90
8481;DHT22;4277;51.354;6.740;2023-06-24T07:20:21;20.60;99.90
8481;DHT22;4277;51.354;6.740;2023-06-24T07:22:47;20.60;99.90
8481;DHT22;4277;51.354;6.740;2023-06-24T07:25:12;20.70;99.90
8481;DHT22;4277;51.354;6.740;2023-06-24T07:27:38;20.80;99.90
8481;DHT22;4277;51.354;6.740;2023-06-24T07:30:05;20.80;99.90
8481;DHT22;4277;51.354;6.740;2023-06-24T07:32:30;20.90;99.90
8481;DHT22;4277;51.354;6.740;2023-06-24T07:34:56;20.90;99.90
8481;DHT22;4277;51.354;6.740;2023-06-24T07:37:22;20.90;99.90
8481;DHT22;4277;51.354;6.740;2023-06-24T07:39:47;20.90;99.90
8481;DHT22;4277;51.354;6.740;2023-06-24T07:42:13;20.90;99.90
8481;DHT22;4277;51.354;6.740;2023-06-24T07:44:50;21.00;99.90
8481;DHT22;4277;51.354;6.740;2023-06-24T07:47:17;21.00;99.90
8481;DHT22;4277;51.354;6.740;2023-06-24T07:49:43;21.10;99.90
8481;DHT22;4277;51.354;6.740;2023-06-24T07:52:09;21.10;99.90
8481;DHT22;4277;51.354;6.740;2023-06-24T07:54:34;21.20;99.90
8481;DHT22;4277;51.354;6.740;2023-06-24T17:32:23;38.10;1.00
8481;DHT22;4277;51.354;6.740;2023-06-24T17:34:49;38.40;1.00
8481;DHT22;4277;51.354;6.740;2023-06-24T17:37:15;38.40;1.00
8481;DHT22;4277;51.354;6.740;2023-06-24T17:39:40;38.90;1.00
8481;DHT22;4277;51.354;6.740;2023-06-24T17:42:06;39.30;1.00
8481;DHT22;4277;51.354;6.740;2023-06-24T17:44:31;39.60;1.00
8481;DHT22;4277;51.354;6.740;2023-06-24T20:54:22;25.30;1.00
8481;DHT22;4277;51.354;6.740;2023-06-24T21:04:06;23.40;30.80
8481;DHT22;4277;51.354;6.740;2023-06-24T21:06:31;23.00;30.00
8481;DHT22;4277;51.354;6.740;2023-06-24T21:08:57;22.90;32.70
8481;DHT22;4277;51.354;6.740;2023-06-24T21:11:24;22.90;47.40
8481;DHT22;4277;51.354;6.740;2023-06-24T21:13:49;22.90;56.30
8481;DHT22;4277;51.354;6.740;2023-06-24T21:16:15;22.80;50.80
8481;DHT22;4277;51.354;6.740;2023-06-24T21:18:40;22.80;50.90
8481;DHT22;4277;51.354;6.740;2023-06-24T21:21:07;22.70;58.50
8481;DHT22;4277;51.354;6.740;2023-06-24T21:23:32;22.70;58.60
8481;DHT22;4277;51.354;6.740;2023-06-24T21:25:58;22.70;59.60
8481;DHT22;4277;51.354;6.740;2023-06-24T21:28:23;22.70;59.00
8481;DHT22;4277;51.354;6.740;2023-06-24T21:30:49;22.70;59.60
8481;DHT22;4277;51.354;6.740;2023-06-24T21:33:14;22.80;60.80
8481;DHT22;4277;51.354;6.740;2023-06-24T21:35:40;22.70;55.00
8481;DHT22;4277;51.354;6.740;2023-06-24T21:38:05;22.70;55.30
8481;DHT22;4277;51.354;6.740;2023-06-24T21:40:31;22.70;56.20
8481;DHT22;4277;51.354;6.740;2023-06-24T21:42:56;22.60;56.30
8481;DHT22;4277;51.354;6.740;2023-06-24T21:45:22;22.60;55.80
8481;DHT22;4277;51.354;6.740;2023-06-24T22:02:24;22.50;99.90
8481;DHT22;4277;51.354;6.740;2023-06-24T22:04:49;22.40;66.20
8481;DHT22;4277;51.354;6.740;2023-06-24T22:41:19;21.80;69.70
8481;DHT22;4277;51.354;6.740;2023-06-24T22:43:44;21.70;69.80
8481;DHT22;4277;51.354;6.740;2023-06-24T22:46:10;21.60;73.20
8481;DHT22;4277;51.354;6.740;2023-06-24T22:48:35;21.50;77.20
8481;DHT22;4277;51.354;6.740;2023-06-24T22:51:01;21.40;73.10
8481;DHT22;4277;51.354;6.740;2023-06-24T22:53:26;21.30;78.40
8481;DHT22;4277;51.354;6.740;2023-06-24T22:55:52;21.30;77.20
8481;DHT22;4277;51.354;6.740;2023-06-24T22:58:17;21.30;79.40
8481;DHT22;4277;51.354;6.740;2023-06-24T23:00:43;21.30;80.60
8481;DHT22;4277;51.354;6.740;2023-06-24T23:03:08;21.20;84.80
8481;DHT22;4277;51.354;6.740;2023-06-24T23:05:34;21.20;85.00
8481;DHT22;4277;51.354;6.740;2023-06-24T23:08:00;21.10;84.80
8481;DHT22;4277;51.354;6.740;2023-06-24T23:10:26;21.00;87.20
8481;DHT22;4277;51.354;6.740;2023-06-24T23:12:52;21.00;88.80
8481;DHT22;4277;51.354;6.740;2023-06-24T23:15:18;20.90;91.10
8481;DHT22;4277;51.354;6.740;2023-06-24T23:17:44;20.90;91.70
8481;DHT22;4277;51.354;6.740;2023-06-24T23:20:10;20.90;91.50
8481;DHT22;4277;51.354;6.740;2023-06-24T23:22:36;20.90;91.80
8481;DHT22;4277;51.354;6.740;2023-06-24T23:25:02;20.80;92.30
8481;DHT22;4277;51.354;6.740;2023-06-24T23:27:30;20.80;92.90
8481;DHT22;4277;51.354;6.740;2023-06-24T23:30:03;20.80;93.60
8481;DHT22;4277;51.354;6.740;2023-06-24T23:32:32;20.80;94.00
8481;DHT22;4277;51.354;6.740;2023-06-24T23:35:08;20.80;94.40
8481;DHT22;4277;51.354;6.740;2023-06-24T23:37:34;20.80;93.90
8481;DHT22;4277;51.354;6.740;2023-06-24T23:39:59;20.70;93.80
8481;DHT22;4277;51.354;6.740;2023-06-24T23:42:25;20.70;93.30
8481;DHT22;4277;51.354;6.740;2023-06-24T23:44:53;20.70;93.60
8481;DHT22;4277;51.354;6.740;2023-06-24T23:47:19;20.70;92.90
8481;DHT22;4277;51.354;6.740;2023-06-24T23:49:44;20.50;94.00
8481;DHT22;4277;51.354;6.740;2023-06-24T23:52:10;20.50;97.10
8481;DHT22;4277;51.354;6.740;2023-06-24T23:54:37;20.50;95.80
8481;DHT22;4277;51.354;6.740;2023-06-24T23:57:03;20.40;95.10
8481;DHT22;4277;51.354;6.740;2023-06-24T23:59:29;20.40;95.70
